sensor_id;sensor_type;location;lat;lon;timestamp;P1;durP1;ratioP1;P2;durP2;ratioP2
48651;SDS011;34442;52.362;-1.302;2023-08-12T00:01:41;2.80;;;0.95;;
48651;SDS011;34442;52.362;-1.302;2023-08-12T00:04:07;5.30;;;1.92;;
48651;SDS011;34442;52.362;-1.302;2023-08-12T00:06:32;4.47;;;1.42;;
48651;SDS011;34442;52.362;-1.302;2023-08-12T00:08:58;3.13;;;1.30;;
48651;SDS011;34442;52.362;-1.302;2023-08-12T00:11:23;2.58;;;1.10;;
48651;SDS011;34442;52.362;-1.302;2023-08-12T00:13:49;2.28;;;1.00;;
48651;SDS011;34442;52.362;-1.302;2023-08-12T00:16:14;3.97;;;1.27;;
48651;SDS011;34442;52.362;-1.302;2023-08-12T00:18:39;3.67;;;1.15;;
48651;SDS011;34442;52.362;-1.302;2023-08-12T00:21:08;3.25;;;1.17;;
48651;SDS011;34442;52.362;-1.302;2023-08-12T00:23:38;3.00;;;1.17;;
48651;SDS011;34442;52.362;-1.302;2023-08-12T00:26:09;2.20;;;0.93;;
48651;SDS011;34442;52.362;-1.302;2023-08-12T00:28:35;1.85;;;1.10;;
48651;SDS011;34442;52.362;-1.302;2023-08-12T00:31:01;2.22;;;0.95;;
48651;SDS011;34442;52.362;-1.302;2023-08-12T00:33:27;2.20;;;1.00;;
48651;SDS011;34442;52.362;-1.302;2023-08-12T00:35:53;2.97;;;1.20;;
48651;SDS011;34442;52.362;-1.302;2023-08-12T00:38:19;2.95;;;1.20;;
48651;SDS011;34442;52.362;-1.302;2023-08-12T00:40:44;3.88;;;1.40;;
48651;SDS011;34442;52.362;-1.302;2023-08-12T00:43:09;4.60;;;1.20;;
48651;SDS011;34442;52.362;-1.302;2023-08-12T00:45:35;3.10;;;1.10;;
48651;SDS011;34442;52.362;-1.302;2023-08-12T00:48:01;1.88;;;1.10;;
48651;SDS011;34442;52.362;-1.302;2023-08-12T00:50:28;4.28;;;1.42;;
48651;SDS011;34442;52.362;-1.302;2023-08-12T00:52:54;2.83;;;1.30;;
48651;SDS011;34442;52.362;-1.302;2023-08-12T00:55:19;4.40;;;1.10;;
48651;SDS011;34442;52.362;-1.302;2023-08-12T00:57:46;3.80;;;1.23;;
48651;SDS011;34442;52.362;-1.302;2023-08-12T01:00:12;3.72;;;1.40;;
48651;SDS011;34442;52.362;-1.302;2023-08-12T01:02:38;2.55;;;1.10;;
48651;SDS011;34442;52.362;-1.302;2023-08-12T01:05:04;3.35;;;1.23;;
48651;SDS011;34442;52.362;-1.302;2023-08-12T01:07:30;2.63;;;1.23;;
48651;SDS011;34442;52.362;-1.302;2023-08-12T01:09:56;3.28;;;1.50;;
48651;SDS011;34442;52.362;-1.302;2023-08-12T01:12:26;3.30;;;1.38;;
48651;SDS011;34442;52.362;-1.302;2023-08-12T01:17:39;4.20;;;1.23;;
48651;SDS011;34442;52.362;-1.302;2023-08-12T01:20:07;3.65;;;1.38;;
48651;SDS011;34442;52.362;-1.302;2023-08-12T01:22:34;3.00;;;1.02;;
48651;SDS011;34442;52.362;-1.302;2023-08-12T01:25:04;2.78;;;1.08;;
48651;SDS011;34442;52.362;-1.302;2023-08-12T01:27:30;2.55;;;1.25;;
48651;SDS011;34442;52.362;-1.302;2023-08-12T01:29:56;2.85;;;1.27;;
48651;SDS011;34442;52.362;-1.302;2023-08-12T01:32:28;2.35;;;1.17;;
48651;SDS011;34442;52.362;-1.302;2023-08-12T01:35:06;4.57;;;1.20;;
48651;SDS011;34442;52.362;-1.302;2023-08-12T01:37:34;2.08;;;1.10;;
48651;SDS011;34442;52.362;-1.302;2023-08-12T01:40:02;2.13;;;1.50;;
48651;SDS011;34442;52.362;-1.302;2023-08-12T01:42:34;3.00;;;1.00;;
48651;SDS011;34442;52.362;-1.302;2023-08-12T01:44:59;2.60;;;1.25;;
48651;SDS011;34442;52.362;-1.302;2023-08-12T01:47:26;4.25;;;1.65;;
48651;SDS011;34442;52.362;-1.302;2023-08-12T01:49:52;2.70;;;1.33;;
48651;SDS011;34442;52.362;-1.302;2023-08-12T01:52:18;2.40;;;1.25;;
48651;SDS011;34442;52.362;-1.302;2023-08-12T01:54:43;3.22;;;1.38;;
48651;SDS011;34442;52.362;-1.302;2023-08-12T01:57:08;2.25;;;1.23;;
48651;SDS011;34442;52.362;-1.302;2023-08-12T01:59:34;3.40;;;1.30;;
48651;SDS011;34442;52.362;-1.302;2023-08-12T02:02:00;3.42;;;1.10;;
48651;SDS011;34442;52.362;-1.302;2023-08-12T02:04:26;3.38;;;1.00;;
48651;SDS011;34442;52.362;-1.302;2023-08-12T02:06:52;2.40;;;1.25;;
48651;SDS011;34442;52.362;-1.302;2023-08-12T02:09:18;2.42;;;1.38;;
48651;SDS011;34442;52.362;-1.302;2023-08-12T02:11:44;2.58;;;1.20;;
48651;SDS011;34442;52.362;-1.302;2023-08-12T02:14:09;3.05;;;1.20;;
48651;SDS011;34442;52.362;-1.302;2023-08-12T02:16:34;1.85;;;1.30;;
48651;SDS011;34442;52.362;-1.302;2023-08-12T02:19:00;4.00;;;1.30;;
48651;SDS011;34442;52.362;-1.302;2023-08-12T02:21:25;2.40;;;1.15;;
48651;SDS011;34442;52.362;-1.302;2023-08-12T02:23:51;1.23;;;1.00;;
48651;SDS011;34442;52.362;-1.302;2023-08-12T02:26:16;2.80;;;1.20;;
48651;SDS011;34442;52.362;-1.302;2023-08-12T02:28:41;2.30;;;1.08;;
48651;SDS011;34442;52.362;-1.302;2023-08-12T02:31:07;2.78;;;1.30;;
48651;SDS011;34442;52.362;-1.302;2023-08-12T02:33:32;1.92;;;1.10;;
48651;SDS011;34442;52.362;-1.302;2023-08-12T02:35:57;1.90;;;0.98;;
48651;SDS011;34442;52.362;-1.302;2023-08-12T02:38:23;2.53;;;1.33;;
48651;SDS011;34442;52.362;-1.302;2023-08-12T02:40:48;2.17;;;1.10;;
48651;SDS011;34442;52.362;-1.302;2023-08-12T02:43:14;4.05;;;1.33;;
48651;SDS011;34442;52.362;-1.302;2023-08-12T02:45:40;1.35;;;0.90;;
48651;SDS011;34442;52.362;-1.302;2023-08-12T02:48:06;2.78;;;1.40;;
48651;SDS011;34442;52.362;-1.302;2023-08-12T02:50:31;3.65;;;1.50;;
48651;SDS011;34442;52.362;-1.302;2023-08-12T02:52:56;1.48;;;1.00;;
48651;SDS011;34442;52.362;-1.302;2023-08-12T02:55:22;2.70;;;1.30;;
48651;SDS011;34442;52.362;-1.302;2023-08-12T02:57:47;2.63;;;1.30;;
48651;SDS011;34442;52.362;-1.302;2023-08-12T03:00:13;4.05;;;1.60;;
48651;SDS011;34442;52.362;-1.302;2023-08-12T03:02:41;3.25;;;1.50;;
48651;SDS011;34442;52.362;-1.302;2023-08-12T03:05:08;4.47;;;1.75;;
48651;SDS011;34442;52.362;-1.302;2023-08-12T03:07:33;2.83;;;1.30;;
48651;SDS011;34442;52.362;-1.302;2023-08-12T03:09:59;2.88;;;1.38;;
48651;SDS011;34442;52.362;-1.302;2023-08-12T03:12:24;4.70;;;1.42;;
48651;SDS011;34442;52.362;-1.302;2023-08-12T03:14:50;2.17;;;1.10;;
48651;SDS011;34442;52.362;-1.302;2023-08-12T03:17:15;2.97;;;1.42;;
48651;SDS011;34442;52.362;-1.302;2023-08-12T03:19:41;1.90;;;1.10;;
48651;SDS011;34442;52.362;-1.302;2023-08-12T03:22:07;5.78;;;1.70;;
48651;SDS011;34442;52.362;-1.302;2023-08-12T03:24:32;4.30;;;1.40;;
48651;SDS011;34442;52.362;-1.302;2023-08-12T03:26:58;2.38;;;1.20;;
48651;SDS011;34442;52.362;-1.302;2023-08-12T03:29:24;3.65;;;1.50;;
48651;SDS011;34442;52.362;-1.302;2023-08-12T03:31:49;2.92;;;1.40;;
48651;SDS011;34442;52.362;-1.302;2023-08-12T03:34:15;4.90;;;1.70;;
48651;SDS011;34442;52.362;-1.302;2023-08-12T03:36:40;2.65;;;1.15;;
48651;SDS011;34442;52.362;-1.302;2023-08-12T03:39:06;3.35;;;1.40;;
48651;SDS011;34442;52.362;-1.302;2023-08-12T03:41:31;2.97;;;1.40;;
48651;SDS011;34442;52.362;-1.302;2023-08-12T03:43:57;7.40;;;4.03;;
48651;SDS011;34442;52.362;-1.302;2023-08-12T03:46:22;3.25;;;1.42;;
48651;SDS011;34442;52.362;-1.302;2023-08-12T03:48:47;2.85;;;1.52;;
48651;SDS011;34442;52.362;-1.302;2023-08-12T03:51:13;2.75;;;1.50;;
48651;SDS011;34442;52.362;-1.302;2023-08-12T03:53:38;2.03;;;1.15;;
48651;SDS011;34442;52.362;-1.302;2023-08-12T03:56:04;3.67;;;1.80;;
48651;SDS011;34442;52.362;-1.302;2023-08-12T03:58:29;2.53;;;1.17;;
48651;SDS011;34442;52.362;-1.302;2023-08-12T04:00:55;3.10;;;1.52;;
48651;SDS011;34442;52.362;-1.302;2023-08-12T04:03:20;2.22;;;1.23;;
48651;SDS011;34442;52.362;-1.302;2023-08-12T04:05:52;3.75;;;1.50;;
48651;SDS011;34442;52.362;-1.302;2023-08-12T04:08:18;3.85;;;1.67;;
48651;SDS011;34442;52.362;-1.302;2023-08-12T04:10:48;6.05;;;1.80;;
48651;SDS011;34442;52.362;-1.302;2023-08-12T04:13:13;4.20;;;1.55;;
48651;SDS011;34442;52.362;-1.302;2023-08-12T04:15:40;3.13;;;1.45;;
48651;SDS011;34442;52.362;-1.302;2023-08-12T04:18:06;4.55;;;1.45;;
48651;SDS011;34442;52.362;-1.302;2023-08-12T04:20:31;2.95;;;1.38;;
48651;SDS011;34442;52.362;-1.302;2023-08-12T04:22:56;2.40;;;1.45;;
48651;SDS011;34442;52.362;-1.302;2023-08-12T04:25:22;3.28;;;1.20;;
48651;SDS011;34442;52.362;-1.302;2023-08-12T04:27:49;2.97;;;1.30;;
48651;SDS011;34442;52.362;-1.302;2023-08-12T04:30:17;2.10;;;1.13;;
48651;SDS011;34442;52.362;-1.302;2023-08-12T04:32:43;3.53;;;1.48;;
48651;SDS011;34442;52.362;-1.302;2023-08-12T04:35:11;3.22;;;1.52;;
48651;SDS011;34442;52.362;-1.302;2023-08-12T04:37:37;2.30;;;1.25;;
48651;SDS011;34442;52.362;-1.302;2023-08-12T04:40:05;3.85;;;1.23;;
48651;SDS011;34442;52.362;-1.302;2023-08-12T04:42:32;3.20;;;1.45;;
48651;SDS011;34442;52.362;-1.302;2023-08-12T04:44:58;2.20;;;1.00;;
48651;SDS011;34442;52.362;-1.302;2023-08-12T04:47:24;1.95;;;1.20;;
48651;SDS011;34442;52.362;-1.302;2023-08-12T04:49:49;4.00;;;1.40;;
48651;SDS011;34442;52.362;-1.302;2023-08-12T04:52:15;3.00;;;1.38;;
48651;SDS011;34442;52.362;-1.302;2023-08-12T04:54:40;5.15;;;1.77;;
48651;SDS011;34442;52.362;-1.302;2023-08-12T04:57:05;2.17;;;1.10;;
48651;SDS011;34442;52.362;-1.302;2023-08-12T04:59:35;4.47;;;1.80;;
48651;SDS011;34442;52.362;-1.302;2023-08-12T05:02:00;3.85;;;1.35;;
48651;SDS011;34442;52.362;-1.302;2023-08-12T05:04:26;4.20;;;1.55;;
48651;SDS011;34442;52.362;-1.302;2023-08-12T05:06:51;4.07;;;1.58;;
48651;SDS011;34442;52.362;-1.302;2023-08-12T05:09:20;4.18;;;1.52;;
48651;SDS011;34442;52.362;-1.302;2023-08-12T05:11:45;4.80;;;1.77;;
48651;SDS011;34442;52.362;-1.302;2023-08-12T05:14:11;5.20;;;2.00;;
48651;SDS011;34442;52.362;-1.302;2023-08-12T05:16:36;2.95;;;1.38;;
48651;SDS011;34442;52.362;-1.302;2023-08-12T05:19:01;3.65;;;1.33;;
48651;SDS011;34442;52.362;-1.302;2023-08-12T05:21:27;3.53;;;1.40;;
48651;SDS011;34442;52.362;-1.302;2023-08-12T05:23:52;4.43;;;2.08;;
48651;SDS011;34442;52.362;-1.302;2023-08-12T05:26:17;3.15;;;1.50;;
48651;SDS011;34442;52.362;-1.302;2023-08-12T05:28:43;2.92;;;1.38;;
48651;SDS011;34442;52.362;-1.302;2023-08-12T05:31:08;3.88;;;1.40;;
48651;SDS011;34442;52.362;-1.302;2023-08-12T05:33:34;4.70;;;1.80;;
48651;SDS011;34442;52.362;-1.302;2023-08-12T05:35:59;2.58;;;1.17;;
48651;SDS011;34442;52.362;-1.302;2023-08-12T05:38:25;2.25;;;1.40;;
48651;SDS011;34442;52.362;-1.302;2023-08-12T05:40:50;1.98;;;1.30;;
48651;SDS011;34442;52.362;-1.302;2023-08-12T05:43:16;4.97;;;1.67;;
48651;SDS011;34442;52.362;-1.302;2023-08-12T05:45:41;4.25;;;1.80;;
48651;SDS011;34442;52.362;-1.302;2023-08-12T05:48:07;3.97;;;1.70;;
48651;SDS011;34442;52.362;-1.302;2023-08-12T05:50:32;3.58;;;1.38;;
48651;SDS011;34442;52.362;-1.302;2023-08-12T05:52:58;5.45;;;1.48;;
48651;SDS011;34442;52.362;-1.302;2023-08-12T05:55:23;5.10;;;1.55;;
48651;SDS011;34442;52.362;-1.302;2023-08-12T05:57:49;2.80;;;1.40;;
48651;SDS011;34442;52.362;-1.302;2023-08-12T06:00:14;3.28;;;1.52;;
48651;SDS011;34442;52.362;-1.302;2023-08-12T06:02:40;3.30;;;1.45;;
48651;SDS011;34442;52.362;-1.302;2023-08-12T06:05:05;3.17;;;1.55;;
48651;SDS011;34442;52.362;-1.302;2023-08-12T06:07:31;3.20;;;1.42;;
48651;SDS011;34442;52.362;-1.302;2023-08-12T06:09:56;4.22;;;1.40;;
48651;SDS011;34442;52.362;-1.302;2023-08-12T06:12:22;3.45;;;1.45;;
48651;SDS011;34442;52.362;-1.302;2023-08-12T06:14:47;3.92;;;1.30;;
48651;SDS011;34442;52.362;-1.302;2023-08-12T06:17:13;3.95;;;1.70;;
48651;SDS011;34442;52.362;-1.302;2023-08-12T06:19:38;4.05;;;1.73;;
48651;SDS011;34442;52.362;-1.302;2023-08-12T06:22:04;3.50;;;1.50;;
48651;SDS011;34442;52.362;-1.302;2023-08-12T06:24:29;4.68;;;1.77;;
48651;SDS011;34442;52.362;-1.302;2023-08-12T06:26:54;6.25;;;1.63;;
48651;SDS011;34442;52.362;-1.302;2023-08-12T06:29:20;3.15;;;1.63;;
48651;SDS011;34442;52.362;-1.302;2023-08-12T06:31:45;3.08;;;1.40;;
48651;SDS011;34442;52.362;-1.302;2023-08-12T06:34:11;3.90;;;1.60;;
48651;SDS011;34442;52.362;-1.302;2023-08-12T06:36:36;5.00;;;1.75;;
48651;SDS011;34442;52.362;-1.302;2023-08-12T06:39:02;4.32;;;1.48;;
48651;SDS011;34442;52.362;-1.302;2023-08-12T06:41:28;3.38;;;1.67;;
48651;SDS011;34442;52.362;-1.302;2023-08-12T06:43:54;3.60;;;1.73;;
48651;SDS011;34442;52.362;-1.302;2023-08-12T06:46:19;4.45;;;1.33;;
48651;SDS011;34442;52.362;-1.302;2023-08-12T06:48:45;3.47;;;1.67;;
48651;SDS011;34442;52.362;-1.302;2023-08-12T06:51:10;4.13;;;1.75;;
48651;SDS011;34442;52.362;-1.302;2023-08-12T06:53:36;4.50;;;1.55;;
48651;SDS011;34442;52.362;-1.302;2023-08-12T06:56:02;3.13;;;1.45;;
48651;SDS011;34442;52.362;-1.302;2023-08-12T06:58:28;3.70;;;1.35;;
48651;SDS011;34442;52.362;-1.302;2023-08-12T07:00:54;3.25;;;1.52;;
48651;SDS011;34442;52.362;-1.302;2023-08-12T07:03:19;4.82;;;1.73;;
48651;SDS011;34442;52.362;-1.302;2023-08-12T07:05:45;3.25;;;1.55;;
48651;SDS011;34442;52.362;-1.302;2023-08-12T07:08:10;6.10;;;1.92;;
48651;SDS011;34442;52.362;-1.302;2023-08-12T07:10:38;4.93;;;1.40;;
48651;SDS011;34442;52.362;-1.302;2023-08-12T07:13:05;5.00;;;1.52;;
48651;SDS011;34442;52.362;-1.302;2023-08-12T07:15:30;4.63;;;1.45;;
48651;SDS011;34442;52.362;-1.302;2023-08-12T07:17:55;3.28;;;1.38;;
48651;SDS011;34442;52.362;-1.302;2023-08-12T07:20:22;4.90;;;1.55;;
48651;SDS011;34442;52.362;-1.302;2023-08-12T07:22:49;3.70;;;1.60;;
48651;SDS011;34442;52.362;-1.302;2023-08-12T07:25:14;3.50;;;1.48;;
48651;SDS011;34442;52.362;-1.302;2023-08-12T07:27:42;2.63;;;1.10;;
48651;SDS011;34442;52.362;-1.302;2023-08-12T07:30:08;4.32;;;1.73;;
48651;SDS011;34442;52.362;-1.302;2023-08-12T07:32:35;2.17;;;1.20;;
48651;SDS011;34442;52.362;-1.302;2023-08-12T07:35:02;4.20;;;1.38;;
48651;SDS011;34442;52.362;-1.302;2023-08-12T07:37:28;3.92;;;1.50;;
48651;SDS011;34442;52.362;-1.302;2023-08-12T07:39:54;3.10;;;1.35;;
48651;SDS011;34442;52.362;-1.302;2023-08-12T07:42:19;2.70;;;0.93;;
48651;SDS011;34442;52.362;-1.302;2023-08-12T07:44:45;3.08;;;1.40;;
48651;SDS011;34442;52.362;-1.302;2023-08-12T07:47:11;3.85;;;1.40;;
48651;SDS011;34442;52.362;-1.302;2023-08-12T07:49:37;5.38;;;1.58;;
48651;SDS011;34442;52.362;-1.302;2023-08-12T07:52:03;4.70;;;1.52;;
48651;SDS011;34442;52.362;-1.302;2023-08-12T07:54:29;6.25;;;1.48;;
48651;SDS011;34442;52.362;-1.302;2023-08-12T07:56:54;4.30;;;1.73;;
48651;SDS011;34442;52.362;-1.302;2023-08-12T07:59:20;3.35;;;1.20;;
48651;SDS011;34442;52.362;-1.302;2023-08-12T08:01:45;3.58;;;1.48;;
48651;SDS011;34442;52.362;-1.302;2023-08-12T08:04:11;2.45;;;1.08;;
48651;SDS011;34442;52.362;-1.302;2023-08-12T08:06:36;3.70;;;1.55;;
48651;SDS011;34442;52.362;-1.302;2023-08-12T08:09:02;6.03;;;1.88;;
48651;SDS011;34442;52.362;-1.302;2023-08-12T08:11:29;4.85;;;1.75;;
48651;SDS011;34442;52.362;-1.302;2023-08-12T08:13:57;5.38;;;1.80;;
48651;SDS011;34442;52.362;-1.302;2023-08-12T08:16:23;4.30;;;1.85;;
48651;SDS011;34442;52.362;-1.302;2023-08-12T08:18:48;4.90;;;1.48;;
48651;SDS011;34442;52.362;-1.302;2023-08-12T08:21:13;4.18;;;1.80;;
48651;SDS011;34442;52.362;-1.302;2023-08-12T08:23:40;2.05;;;1.10;;
48651;SDS011;34442;52.362;-1.302;2023-08-12T08:26:06;2.95;;;1.20;;
48651;SDS011;34442;52.362;-1.302;2023-08-12T08:28:32;4.88;;;1.40;;
48651;SDS011;34442;52.362;-1.302;2023-08-12T08:30:58;5.10;;;1.38;;
48651;SDS011;34442;52.362;-1.302;2023-08-12T08:33:24;3.55;;;1.30;;
48651;SDS011;34442;52.362;-1.302;2023-08-12T08:35:50;5.00;;;1.52;;
48651;SDS011;34442;52.362;-1.302;2023-08-12T08:38:19;3.97;;;1.40;;
48651;SDS011;34442;52.362;-1.302;2023-08-12T08:40:45;5.88;;;2.55;;
48651;SDS011;34442;52.362;-1.302;2023-08-12T08:43:10;4.43;;;1.58;;
48651;SDS011;34442;52.362;-1.302;2023-08-12T08:45:40;7.43;;;2.20;;
48651;SDS011;34442;52.362;-1.302;2023-08-12T08:48:07;3.17;;;1.42;;
48651;SDS011;34442;52.362;-1.302;2023-08-12T08:50:33;4.15;;;1.30;;
48651;SDS011;34442;52.362;-1.302;2023-08-12T08:52:59;2.83;;;1.15;;
48651;SDS011;34442;52.362;-1.302;2023-08-12T08:55:26;4.22;;;1.20;;
48651;SDS011;34442;52.362;-1.302;2023-08-12T08:57:51;4.18;;;1.58;;
48651;SDS011;34442;52.362;-1.302;2023-08-12T09:00:17;3.75;;;1.45;;
48651;SDS011;34442;52.362;-1.302;2023-08-12T09:02:44;4.93;;;1.45;;
48651;SDS011;34442;52.362;-1.302;2023-08-12T09:05:13;4.15;;;1.42;;
48651;SDS011;34442;52.362;-1.302;2023-08-12T09:07:39;6.13;;;2.45;;
48651;SDS011;34442;52.362;-1.302;2023-08-12T09:10:07;4.18;;;1.70;;
48651;SDS011;34442;52.362;-1.302;2023-08-12T09:12:33;3.55;;;1.33;;
48651;SDS011;34442;52.362;-1.302;2023-08-12T09:14:59;3.10;;;1.02;;
48651;SDS011;34442;52.362;-1.302;2023-08-12T09:17:24;3.83;;;1.40;;
48651;SDS011;34442;52.362;-1.302;2023-08-12T09:19:50;4.53;;;1.60;;
48651;SDS011;34442;52.362;-1.302;2023-08-12T09:22:17;3.53;;;1.35;;
48651;SDS011;34442;52.362;-1.302;2023-08-12T09:24:42;2.58;;;0.80;;
48651;SDS011;34442;52.362;-1.302;2023-08-12T09:27:08;3.72;;;1.33;;
48651;SDS011;34442;52.362;-1.302;2023-08-12T09:29:34;3.40;;;1.48;;
48651;SDS011;34442;52.362;-1.302;2023-08-12T09:32:13;2.45;;;1.20;;
48651;SDS011;34442;52.362;-1.302;2023-08-12T09:35:02;5.80;;;1.43;;
48651;SDS011;34442;52.362;-1.302;2023-08-12T09:37:28;5.78;;;1.50;;
48651;SDS011;34442;52.362;-1.302;2023-08-12T09:39:54;2.30;;;1.08;;
48651;SDS011;34442;52.362;-1.302;2023-08-12T09:42:21;2.97;;;1.20;;
48651;SDS011;34442;52.362;-1.302;2023-08-12T09:44:49;2.45;;;1.13;;
48651;SDS011;34442;52.362;-1.302;2023-08-12T09:47:15;2.28;;;1.00;;
48651;SDS011;34442;52.362;-1.302;2023-08-12T09:49:41;3.45;;;1.30;;
48651;SDS011;34442;52.362;-1.302;2023-08-12T09:52:07;2.75;;;1.20;;
48651;SDS011;34442;52.362;-1.302;2023-08-12T09:54:36;2.88;;;1.00;;
48651;SDS011;34442;52.362;-1.302;2023-08-12T09:57:03;2.42;;;1.08;;
48651;SDS011;34442;52.362;-1.302;2023-08-12T09:59:32;4.80;;;1.50;;
48651;SDS011;34442;52.362;-1.302;2023-08-12T10:01:59;1.55;;;0.73;;
48651;SDS011;34442;52.362;-1.302;2023-08-12T10:04:29;3.70;;;1.08;;
48651;SDS011;34442;52.362;-1.302;2023-08-12T10:07:02;3.88;;;1.50;;
48651;SDS011;34442;52.362;-1.302;2023-08-12T10:09:29;3.90;;;1.20;;
48651;SDS011;34442;52.362;-1.302;2023-08-12T10:11:56;2.80;;;1.25;;
48651;SDS011;34442;52.362;-1.302;2023-08-12T10:14:21;2.70;;;1.00;;
48651;SDS011;34442;52.362;-1.302;2023-08-12T10:16:49;2.78;;;1.00;;
48651;SDS011;34442;52.362;-1.302;2023-08-12T10:19:15;3.28;;;1.67;;
48651;SDS011;34442;52.362;-1.302;2023-08-12T10:21:42;3.00;;;1.30;;
48651;SDS011;34442;52.362;-1.302;2023-08-12T10:24:09;3.25;;;1.10;;
48651;SDS011;34442;52.362;-1.302;2023-08-12T10:26:37;3.90;;;1.17;;
48651;SDS011;34442;52.362;-1.302;2023-08-12T10:29:03;4.35;;;1.20;;
48651;SDS011;34442;52.362;-1.302;2023-08-12T10:31:29;2.08;;;1.02;;
48651;SDS011;34442;52.362;-1.302;2023-08-12T10:33:56;2.47;;;1.15;;
48651;SDS011;34442;52.362;-1.302;2023-08-12T10:36:22;3.05;;;1.00;;
48651;SDS011;34442;52.362;-1.302;2023-08-12T10:38:48;3.75;;;1.40;;
48651;SDS011;34442;52.362;-1.302;2023-08-12T10:41:23;3.63;;;1.20;;
48651;SDS011;34442;52.362;-1.302;2023-08-12T10:46:31;2.40;;;1.08;;
48651;SDS011;34442;52.362;-1.302;2023-08-12T10:48:58;2.00;;;0.73;;
48651;SDS011;34442;52.362;-1.302;2023-08-12T10:51:39;4.43;;;1.10;;
48651;SDS011;34442;52.362;-1.302;2023-08-12T10:54:28;2.00;;;0.93;;
48651;SDS011;34442;52.362;-1.302;2023-08-12T11:02:13;2.28;;;0.85;;
48651;SDS011;34442;52.362;-1.302;2023-08-12T11:04:49;2.03;;;1.40;;
48651;SDS011;34442;52.362;-1.302;2023-08-12T11:07:43;2.10;;;0.95;;
48651;SDS011;34442;52.362;-1.302;2023-08-12T11:10:16;1.50;;;0.82;;
48651;SDS011;34442;52.362;-1.302;2023-08-12T11:17:59;0.98;;;0.68;;
48651;SDS011;34442;52.362;-1.302;2023-08-12T11:20:28;1.42;;;0.70;;
48651;SDS011;34442;52.362;-1.302;2023-08-12T11:22:54;1.70;;;0.70;;
48651;SDS011;34442;52.362;-1.302;2023-08-12T11:25:20;1.20;;;0.80;;
48651;SDS011;34442;52.362;-1.302;2023-08-12T11:27:46;0.93;;;0.43;;
48651;SDS011;34442;52.362;-1.302;2023-08-12T11:30:13;1.85;;;0.80;;
48651;SDS011;34442;52.362;-1.302;2023-08-12T11:32:41;3.85;;;1.08;;
48651;SDS011;34442;52.362;-1.302;2023-08-12T11:35:08;1.10;;;0.63;;
48651;SDS011;34442;52.362;-1.302;2023-08-12T11:37:37;1.25;;;0.68;;
48651;SDS011;34442;52.362;-1.302;2023-08-12T11:40:04;1.15;;;0.60;;
48651;SDS011;34442;52.362;-1.302;2023-08-12T11:42:32;1.88;;;0.80;;
48651;SDS011;34442;52.362;-1.302;2023-08-12T11:44:57;1.75;;;0.60;;
48651;SDS011;34442;52.362;-1.302;2023-08-12T11:47:23;2.67;;;1.35;;
48651;SDS011;34442;52.362;-1.302;2023-08-12T11:49:48;2.03;;;0.73;;
48651;SDS011;34442;52.362;-1.302;2023-08-12T11:52:14;1.17;;;0.52;;
48651;SDS011;34442;52.362;-1.302;2023-08-12T11:54:40;2.80;;;0.95;;
48651;SDS011;34442;52.362;-1.302;2023-08-12T11:57:05;0.95;;;0.60;;
48651;SDS011;34442;52.362;-1.302;2023-08-12T11:59:31;1.30;;;0.60;;
48651;SDS011;34442;52.362;-1.302;2023-08-12T12:01:56;1.95;;;0.60;;
48651;SDS011;34442;52.362;-1.302;2023-08-12T12:04:22;2.33;;;0.70;;
48651;SDS011;34442;52.362;-1.302;2023-08-12T12:06:48;1.48;;;0.70;;
48651;SDS011;34442;52.362;-1.302;2023-08-12T12:09:13;1.95;;;0.68;;
48651;SDS011;34442;52.362;-1.302;2023-08-12T12:11:43;1.40;;;0.60;;
48651;SDS011;34442;52.362;-1.302;2023-08-12T12:14:09;1.48;;;0.60;;
48651;SDS011;34442;52.362;-1.302;2023-08-12T12:16:42;2.83;;;0.82;;
48651;SDS011;34442;52.362;-1.302;2023-08-12T12:19:13;1.67;;;0.70;;
48651;SDS011;34442;52.362;-1.302;2023-08-12T12:21:41;2.28;;;0.80;;
48651;SDS011;34442;52.362;-1.302;2023-08-12T12:24:10;0.95;;;0.60;;
48651;SDS011;34442;52.362;-1.302;2023-08-12T12:26:36;1.85;;;0.82;;
48651;SDS011;34442;52.362;-1.302;2023-08-12T12:29:05;1.90;;;0.70;;
48651;SDS011;34442;52.362;-1.302;2023-08-12T12:31:34;1.88;;;0.98;;
48651;SDS011;34442;52.362;-1.302;2023-08-12T12:34:04;1.52;;;0.73;;
48651;SDS011;34442;52.362;-1.302;2023-08-12T12:36:33;0.80;;;0.68;;
48651;SDS011;34442;52.362;-1.302;2023-08-12T12:39:00;1.52;;;0.80;;
48651;SDS011;34442;52.362;-1.302;2023-08-12T12:41:27;2.70;;;0.90;;
48651;SDS011;34442;52.362;-1.302;2023-08-12T12:43:52;1.48;;;0.80;;
48651;SDS011;34442;52.362;-1.302;2023-08-12T12:46:18;1.15;;;0.70;;
48651;SDS011;34442;52.362;-1.302;2023-08-12T12:48:43;2.53;;;0.88;;
48651;SDS011;34442;52.362;-1.302;2023-08-12T12:51:10;0.63;;;0.47;;
48651;SDS011;34442;52.362;-1.302;2023-08-12T12:53:36;1.67;;;0.80;;
48651;SDS011;34442;52.362;-1.302;2023-08-12T12:56:01;1.70;;;0.90;;
48651;SDS011;34442;52.362;-1.302;2023-08-12T12:58:32;1.85;;;0.70;;
48651;SDS011;34442;52.362;-1.302;2023-08-12T13:00:59;1.95;;;0.85;;
48651;SDS011;34442;52.362;-1.302;2023-08-12T13:03:25;2.38;;;0.80;;
48651;SDS011;34442;52.362;-1.302;2023-08-12T13:05:51;1.85;;;0.60;;
48651;SDS011;34442;52.362;-1.302;2023-08-12T13:08:17;0.95;;;0.50;;
48651;SDS011;34442;52.362;-1.302;2023-08-12T13:10:42;1.90;;;0.85;;
48651;SDS011;34442;52.362;-1.302;2023-08-12T13:13:08;2.22;;;0.90;;
48651;SDS011;34442;52.362;-1.302;2023-08-12T13:15:34;2.45;;;0.88;;
48651;SDS011;34442;52.362;-1.302;2023-08-12T13:17:59;1.60;;;0.85;;
48651;SDS011;34442;52.362;-1.302;2023-08-12T13:20:25;3.05;;;1.45;;
48651;SDS011;34442;52.362;-1.302;2023-08-12T13:22:50;2.42;;;1.05;;
48651;SDS011;34442;52.362;-1.302;2023-08-12T13:25:16;1.67;;;0.80;;
48651;SDS011;34442;52.362;-1.302;2023-08-12T13:27:41;1.77;;;0.70;;
48651;SDS011;34442;52.362;-1.302;2023-08-12T13:30:07;2.42;;;0.95;;
48651;SDS011;34442;52.362;-1.302;2023-08-12T13:32:33;1.73;;;0.60;;
48651;SDS011;34442;52.362;-1.302;2023-08-12T13:34:58;2.00;;;0.63;;
48651;SDS011;34442;52.362;-1.302;2023-08-12T13:37:23;1.52;;;0.52;;
48651;SDS011;34442;52.362;-1.302;2023-08-12T13:39:49;1.25;;;0.70;;
48651;SDS011;34442;52.362;-1.302;2023-08-12T13:42:14;2.53;;;0.90;;
48651;SDS011;34442;52.362;-1.302;2023-08-12T13:44:40;1.42;;;0.70;;
48651;SDS011;34442;52.362;-1.302;2023-08-12T13:47:05;2.35;;;1.00;;
48651;SDS011;34442;52.362;-1.302;2023-08-12T13:49:31;1.20;;;0.50;;
48651;SDS011;34442;52.362;-1.302;2023-08-12T13:51:57;1.63;;;0.73;;
48651;SDS011;34442;52.362;-1.302;2023-08-12T13:54:24;1.20;;;0.38;;
48651;SDS011;34442;52.362;-1.302;2023-08-12T13:56:50;1.75;;;0.70;;
48651;SDS011;34442;52.362;-1.302;2023-08-12T13:59:15;1.67;;;0.60;;
48651;SDS011;34442;52.362;-1.302;2023-08-12T14:01:40;0.45;;;0.30;;
48651;SDS011;34442;52.362;-1.302;2023-08-12T14:04:06;2.47;;;0.85;;
48651;SDS011;34442;52.362;-1.302;2023-08-12T14:06:32;0.73;;;0.50;;
48651;SDS011;34442;52.362;-1.302;2023-08-12T14:08:58;1.80;;;0.90;;
48651;SDS011;34442;52.362;-1.302;2023-08-12T14:11:23;1.08;;;0.68;;
48651;SDS011;34442;52.362;-1.302;2023-08-12T14:13:48;1.30;;;0.55;;
48651;SDS011;34442;52.362;-1.302;2023-08-12T14:16:14;1.95;;;0.80;;
48651;SDS011;34442;52.362;-1.302;2023-08-12T14:18:39;0.70;;;0.55;;
48651;SDS011;34442;52.362;-1.302;2023-08-12T14:21:05;1.98;;;0.73;;
48651;SDS011;34442;52.362;-1.302;2023-08-12T14:23:31;1.65;;;0.75;;
48651;SDS011;34442;52.362;-1.302;2023-08-12T14:25:56;0.90;;;0.65;;
48651;SDS011;34442;52.362;-1.302;2023-08-12T14:28:21;1.85;;;0.82;;
48651;SDS011;34442;52.362;-1.302;2023-08-12T14:30:47;1.70;;;0.68;;
48651;SDS011;34442;52.362;-1.302;2023-08-12T14:33:12;2.63;;;0.77;;
48651;SDS011;34442;52.362;-1.302;2023-08-12T14:35:38;0.90;;;0.47;;
48651;SDS011;34442;52.362;-1.302;2023-08-12T14:38:03;0.73;;;0.32;;
48651;SDS011;34442;52.362;-1.302;2023-08-12T14:40:29;0.60;;;0.60;;
48651;SDS011;34442;52.362;-1.302;2023-08-12T14:42:54;0.57;;;0.45;;
48651;SDS011;34442;52.362;-1.302;2023-08-12T14:45:19;1.00;;;0.50;;